createdAt,value
2023-03-12T00:01:33.373Z,101291.56
2023-03-12T00:03:34.945Z,101286.22
2023-03-12T00:05:40.520Z,101286.97
2023-03-12T00:07:42.007Z,101287.75
2023-03-12T00:09:43.517Z,101283.38
2023-03-12T00:11:45.014Z,101281.63
2023-03-12T00:13:54.511Z,101279.00
2023-03-12T00:15:56.022Z,101282.31
2023-03-12T00:17:57.566Z,101284.03
2023-03-12T00:19:59.029Z,101283.97
2023-03-12T00:22:00.606Z,101287.47
2023-03-12T00:24:02.131Z,101277.91
2023-03-12T00:26:09.259Z,101280.44
2023-03-12T00:28:10.723Z,101276.09
2023-03-12T00:30:12.691Z,101276.03
2023-03-12T00:32:14.316Z,101274.28
2023-03-12T00:34:15.843Z,101275.09
2023-03-12T00:36:18.701Z,101273.34
2023-03-12T00:38:20.234Z,101275.06
2023-03-12T00:40:21.734Z,101271.59
2023-03-12T00:42:23.234Z,101262.94
2023-03-12T00:44:24.702Z,101270.72
2023-03-12T00:46:26.341Z,101270.72
2023-03-12T00:48:27.965Z,101276.75
2023-03-12T00:50:29.433Z,101267.25
2023-03-12T00:52:30.981Z,101264.75
2023-03-12T00:54:32.494Z,101263.94
2023-03-12T00:56:34.062Z,101265.66
2023-03-12T00:58:35.528Z,101264.75
2023-03-12T01:00:37.065Z,101269.94
2023-03-12T01:02:39.672Z,101269.84
2023-03-12T01:04:41.178Z,101261.97
2023-03-12T01:06:42.701Z,101266.19
2023-03-12T01:08:44.352Z,101260.97
2023-03-12T01:10:45.824Z,101263.53
2023-03-12T01:12:47.890Z,101261.72
2023-03-12T01:14:49.370Z,101258.97
2023-03-12T01:16:52.441Z,101269.34
2023-03-12T01:18:55.190Z,101265.84
2023-03-12T01:20:56.677Z,101259.72
2023-03-12T01:22:58.168Z,101258.81
2023-03-12T01:24:59.637Z,101265.75
2023-03-12T01:27:01.115Z,101260.50
2023-03-12T01:29:02.587Z,101267.44
2023-03-12T01:31:12.517Z,101269.28
2023-03-12T01:33:14.074Z,101265.78
2023-03-12T01:35:15.619Z,101260.66
2023-03-12T01:37:17.143Z,101259.78
2023-03-12T01:39:18.614Z,101259.78
2023-03-12T01:41:20.687Z,101260.69
2023-03-12T01:43:29.356Z,101260.78
2023-03-12T01:46:12.322Z,101258.97
2023-03-12T01:48:14.184Z,101258.03
2023-03-12T01:50:15.721Z,101262.31
2023-03-12T01:52:23.845Z,101266.56
2023-03-12T01:54:34.422Z,101252.63
2023-03-12T01:56:37.775Z,101262.13
2023-03-12T01:58:42.243Z,101250.81
2023-03-12T02:00:44.590Z,101249.84
2023-03-12T02:02:48.043Z,101257.56
2023-03-12T02:04:52.746Z,101256.69
2023-03-12T02:07:14.873Z,101258.28
2023-03-12T02:09:20.176Z,101256.50
2023-03-12T02:11:21.702Z,101255.63
2023-03-12T02:13:23.175Z,101252.13
2023-03-12T02:15:24.753Z,101255.50
2023-03-12T02:17:26.508Z,101249.44
2023-03-12T02:19:53.519Z,101245.94
2023-03-12T02:21:55.619Z,101244.94
2023-03-12T02:24:21.366Z,101239.69
2023-03-12T02:26:25.562Z,101243.94
2023-03-12T02:28:29.533Z,101242.13
2023-03-12T02:30:31.949Z,101231.72
2023-03-12T02:32:38.327Z,101244.69
2023-03-12T02:34:39.889Z,101243.78
2023-03-12T02:36:41.359Z,101237.69
2023-03-12T02:38:42.834Z,101243.66
2023-03-12T02:40:47.562Z,101240.06
2023-03-12T02:42:49.236Z,101250.44
2023-03-12T02:44:50.715Z,101238.31
2023-03-12T02:46:57.303Z,101244.34
2023-03-12T02:48:59.284Z,101242.59
2023-03-12T02:51:00.904Z,101247.69
2023-03-12T02:53:02.378Z,101239.91
2023-03-12T02:55:05.587Z,101233.06
2023-03-12T02:57:07.124Z,101239.91
2023-03-12T02:59:10.759Z,101240.75
2023-03-12T03:01:12.612Z,101235.50
2023-03-12T03:03:14.091Z,101248.41
2023-03-12T03:05:15.561Z,101237.97
2023-03-12T03:07:17.050Z,101248.31
2023-03-12T03:09:19.330Z,101243.06
2023-03-12T03:11:24.332Z,101243.84
2023-03-12T03:13:25.820Z,101237.81
2023-03-12T03:15:27.469Z,101242.91
2023-03-12T03:17:29.378Z,101237.69
2023-03-12T03:19:30.905Z,101243.69
2023-03-12T03:21:33.050Z,101240.19
2023-03-12T03:23:35.520Z,101243.66
2023-03-12T03:25:37.016Z,101246.25
2023-03-12T03:27:38.537Z,101237.59
2023-03-12T03:31:43.194Z,101230.63
2023-03-12T03:33:45.255Z,101235.81
2023-03-12T03:35:48.414Z,101239.22
2023-03-12T03:37:49.982Z,101237.47
2023-03-12T03:39:51.502Z,101235.72
2023-03-12T03:41:52.971Z,101235.72
2023-03-12T03:43:58.545Z,101232.25
2023-03-12T03:46:03.045Z,101241.69
2023-03-12T03:48:04.970Z,101237.44
2023-03-12T03:50:06.942Z,101233.09
2023-03-12T03:52:08.467Z,101239.16
2023-03-12T03:54:10.520Z,101234.84
2023-03-12T03:56:15.185Z,101240.06
2023-03-12T03:58:16.792Z,101237.56
2023-03-12T04:00:18.576Z,101234.13
2023-03-12T04:02:20.255Z,101229.84
2023-03-12T04:04:21.829Z,101228.13
2023-03-12T04:06:23.629Z,101229.88
2023-03-12T04:08:25.171Z,101227.28
2023-03-12T04:10:26.635Z,101233.34
2023-03-12T04:12:28.718Z,101229.03
2023-03-12T04:14:30.737Z,101234.25
2023-03-12T04:16:32.199Z,101228.25
2023-03-12T04:18:36.018Z,101234.31
2023-03-12T04:20:37.472Z,101229.91
2023-03-12T04:22:38.975Z,101226.44
2023-03-12T04:24:40.439Z,101232.44
2023-03-12T04:26:42.289Z,101228.09
2023-03-12T04:28:43.832Z,101224.56
2023-03-12T04:30:45.298Z,101219.34
2023-03-12T04:32:46.886Z,101222.75
2023-03-12T04:34:48.421Z,101216.69
2023-03-12T04:36:49.989Z,101210.63
2023-03-12T04:38:51.474Z,101206.28
2023-03-12T04:41:00.260Z,101205.41
2023-03-12T04:43:01.687Z,101204.41
2023-03-12T04:45:06.293Z,101204.38
2023-03-12T04:47:07.885Z,101206.06
2023-03-12T04:49:09.425Z,101205.13
2023-03-12T04:51:10.915Z,101201.59
2023-03-12T04:53:12.425Z,101207.66
2023-03-12T04:55:13.912Z,101197.28
2023-03-12T04:57:15.420Z,101199.88
2023-03-12T04:59:16.990Z,101193.00
2023-03-12T05:01:31.374Z,101186.94
2023-03-12T05:03:33.252Z,101188.69
2023-03-12T05:05:35.831Z,101186.06
2023-03-12T05:07:37.343Z,101186.94
2023-03-12T05:09:38.793Z,101181.75
2023-03-12T05:11:40.307Z,101180.88
2023-03-12T05:13:42.216Z,101174.00
2023-03-12T05:15:44.089Z,101174.94
2023-03-12T05:17:45.874Z,101176.69
2023-03-12T05:19:47.333Z,101171.53
2023-03-12T05:21:48.879Z,101176.75
2023-03-12T05:23:50.370Z,101171.59
2023-03-12T05:25:51.826Z,101165.59
2023-03-12T05:27:53.454Z,101167.34
2023-03-12T05:29:54.910Z,101161.34
2023-03-12T05:31:56.414Z,101155.31
2023-03-12T05:33:57.965Z,101153.59
2023-03-12T05:35:59.458Z,101157.09
2023-03-12T05:38:01.141Z,101143.28
2023-03-12T05:40:02.667Z,101146.78
2023-03-12T05:42:04.924Z,101144.19
2023-03-12T05:44:06.436Z,101140.81
2023-03-12T05:46:08.003Z,101139.97
2023-03-12T05:48:09.473Z,101142.59
2023-03-12T05:50:11.963Z,101142.59
2023-03-12T05:52:13.490Z,101146.09
2023-03-12T05:54:16.230Z,101132.31
2023-03-12T05:56:18.546Z,101146.16
2023-03-12T05:58:20.063Z,101147.94
2023-03-12T06:00:21.939Z,101143.66
2023-03-12T06:02:23.463Z,101135.06
2023-03-12T06:04:25.025Z,101137.69
2023-03-12T06:06:26.594Z,101142.94
2023-03-12T06:08:28.119Z,101138.69
2023-03-12T06:10:29.701Z,101135.28
2023-03-12T06:12:31.414Z,101135.34
2023-03-12T06:14:32.902Z,101138.88
2023-03-12T06:16:34.422Z,101132.84
2023-03-12T06:18:36.803Z,101126.91
2023-03-12T06:20:38.327Z,101130.41
2023-03-12T06:22:39.875Z,101127.84
2023-03-12T06:24:42.625Z,101126.16
2023-03-12T06:26:44.188Z,101124.47
2023-03-12T06:28:47.396Z,101118.47
2023-03-12T06:30:48.853Z,101121.13
2023-03-12T06:32:50.344Z,101119.47
2023-03-12T06:34:51.890Z,101118.63
2023-03-12T06:36:53.418Z,101113.47
2023-03-12T06:38:57.102Z,101113.47
2023-03-12T06:41:09.458Z,101106.59
2023-03-12T06:43:12.320Z,101110.09
2023-03-12T06:45:13.824Z,101111.91
2023-03-12T06:47:17.505Z,101110.31
2023-03-12T06:49:19.270Z,101103.53
2023-03-12T06:51:20.794Z,101101.94
2023-03-12T06:53:22.916Z,101096.91
2023-03-12T06:55:24.396Z,101092.72
2023-03-12T06:57:25.865Z,101090.22
2023-03-12T06:59:27.456Z,101099.84
2023-03-12T07:01:28.911Z,101093.88
2023-03-12T07:03:30.453Z,101096.59
2023-03-12T07:05:31.917Z,101102.81
2023-03-12T07:07:33.388Z,101105.47
2023-03-12T07:09:34.834Z,101104.72
2023-03-12T07:11:36.280Z,101107.38
2023-03-12T07:13:37.964Z,101107.44
2023-03-12T07:15:39.729Z,101105.78
2023-03-12T07:17:41.367Z,101087.69
2023-03-12T07:19:42.842Z,101092.16
2023-03-12T07:21:44.278Z,101094.06
2023-03-12T07:23:45.748Z,101092.47
2023-03-12T07:25:47.935Z,101084.03
2023-03-12T07:27:49.432Z,101084.22
2023-03-12T07:29:50.967Z,101080.03
2023-03-12T07:31:52.448Z,101077.59
2023-03-12T07:33:54.057Z,101075.09
2023-03-12T07:35:55.720Z,101070.91
2023-03-12T07:37:57.379Z,101070.97
2023-03-12T07:39:58.971Z,101077.06
2023-03-12T07:42:00.556Z,101077.09
2023-03-12T07:44:02.049Z,101085.72
2023-03-12T07:46:03.722Z,101081.38
2023-03-12T07:48:06.741Z,101083.13
2023-03-12T07:50:09.068Z,101092.66
2023-03-12T07:52:11.552Z,101086.59
2023-03-12T07:54:13.107Z,101087.53
2023-03-12T07:56:14.667Z,101084.94
2023-03-12T07:58:16.956Z,101089.38
2023-03-12T08:00:18.761Z,101088.56
2023-03-12T08:02:20.678Z,101092.09
2023-03-12T08:04:22.638Z,101093.88
2023-03-12T08:06:24.626Z,101090.44
2023-03-12T08:08:26.457Z,101094.84
2023-03-12T08:10:28.315Z,101083.69
2023-03-12T08:12:29.977Z,101093.28
2023-03-12T08:14:31.797Z,101089.00
2023-03-12T08:16:33.325Z,101086.50
2023-03-12T08:18:34.875Z,101079.63
2023-03-12T08:20:36.698Z,101085.78
2023-03-12T08:22:39.113Z,101072.00
2023-03-12T08:24:40.835Z,101069.53
2023-03-12T08:26:42.327Z,101065.34
2023-03-12T08:28:44.163Z,101070.66
2023-03-12T08:30:48.163Z,101069.88
2023-03-12T08:32:49.632Z,101063.03
2023-03-12T08:34:51.301Z,101064.81
2023-03-12T08:36:52.838Z,101056.25
2023-03-12T08:38:54.322Z,101062.34
2023-03-12T08:40:57.990Z,101055.47
2023-03-12T08:42:59.551Z,101057.25
2023-03-12T08:45:00.989Z,101065.97
2023-03-12T08:47:02.490Z,101051.28
2023-03-12T08:49:04.021Z,101055.69
2023-03-12T08:51:07.450Z,101050.53
2023-03-12T08:53:08.939Z,101045.44
2023-03-12T08:55:11.743Z,101038.56
2023-03-12T08:57:13.195Z,101029.06
2023-03-12T08:59:14.834Z,101037.84
2023-03-12T09:01:16.440Z,101035.31
2023-03-12T09:03:18.671Z,101033.66
2023-03-12T09:05:20.912Z,101031.91
2023-03-12T09:07:22.709Z,101030.19
2023-03-12T09:09:24.182Z,101035.38
2023-03-12T09:11:25.764Z,101029.28
2023-03-12T09:13:40.678Z,101017.94
2023-03-12T09:15:48.870Z,101019.69
2023-03-12T09:17:50.696Z,101014.53
2023-03-12T09:19:52.137Z,101011.13
2023-03-12T09:21:53.644Z,101000.72
2023-03-12T09:23:55.180Z,100993.78
2023-03-12T09:25:57.275Z,100987.75
2023-03-12T09:27:58.826Z,100993.00
2023-03-12T09:30:01.259Z,100992.19
2023-03-12T09:32:05.799Z,100987.00
2023-03-12T09:34:07.560Z,100977.44
2023-03-12T09:36:09.212Z,100973.13
2023-03-12T09:38:15.123Z,100962.69
2023-03-12T09:40:20.429Z,100959.22
2023-03-12T09:42:40.521Z,100949.66
2023-03-12T09:44:45.211Z,100959.25
2023-03-12T09:46:57.287Z,100954.03
2023-03-12T09:49:04.638Z,100947.13
2023-03-12T09:51:19.796Z,100942.81
2023-03-12T09:53:21.181Z,100941.09
2023-03-12T09:55:23.321Z,100939.34
2023-03-12T09:57:26.602Z,100940.22
2023-03-12T09:59:28.265Z,100923.72
2023-03-12T10:01:33.341Z,100925.47
2023-03-12T10:03:44.977Z,100932.41
2023-03-12T10:06:12.672Z,100927.19
2023-03-12T10:08:34.113Z,100940.25
2023-03-12T10:10:45.202Z,100932.41
2023-03-12T10:13:20.667Z,100915.88
2023-03-12T10:15:44.924Z,100914.97
2023-03-12T10:18:17.382Z,100901.94
2023-03-12T10:20:43.758Z,100894.06
2023-03-12T10:23:04.820Z,100877.47
2023-03-12T10:25:27.701Z,100865.22
2023-03-12T10:27:34.805Z,100859.97
2023-03-12T10:29:44.406Z,100862.56
2023-03-12T10:32:02.293Z,100851.22
2023-03-12T10:34:14.323Z,100847.69
2023-03-12T10:36:19.400Z,100850.25
2023-03-12T10:38:29.027Z,100851.97
2023-03-12T10:40:36.653Z,100856.34
2023-03-12T10:42:39.322Z,100852.88
2023-03-12T10:44:40.796Z,100848.53
2023-03-12T10:46:56.042Z,100844.25
2023-03-12T10:49:22.420Z,100847.78
2023-03-12T10:51:23.921Z,100843.53
2023-03-12T10:53:32.016Z,100846.16
2023-03-12T10:55:33.537Z,100854.88
2023-03-12T10:57:42.316Z,100846.16
2023-03-12T10:59:45.207Z,100852.25
2023-03-12T11:01:51.489Z,100849.66
2023-03-12T11:04:07.904Z,100854.00
2023-03-12T11:06:19.610Z,100851.41
2023-03-12T11:08:24.180Z,100844.47
2023-03-12T11:10:38.896Z,100841.84
2023-03-12T11:12:50.711Z,100847.97
2023-03-12T11:14:52.527Z,100843.63
2023-03-12T11:16:55.917Z,100846.22
2023-03-12T11:19:03.709Z,100846.22
2023-03-12T11:21:11.451Z,100846.22
2023-03-12T11:23:19.995Z,100853.19
2023-03-12T11:25:29.216Z,100853.19
2023-03-12T11:27:40.949Z,100856.63
2023-03-12T11:29:49.002Z,100847.91
2023-03-12T11:32:05.211Z,100847.84
2023-03-12T11:34:14.302Z,100836.50
2023-03-12T11:36:40.303Z,100822.56
2023-03-12T11:38:49.084Z,100821.69
2023-03-12T11:40:50.428Z,100823.44
2023-03-12T11:43:03.844Z,100812.97
2023-03-12T11:45:44.223Z,100818.13
2023-03-12T11:48:04.590Z,100812.00
2023-03-12T11:50:30.889Z,100810.28
2023-03-12T11:53:11.339Z,100814.66
2023-03-12T11:55:46.761Z,100807.69
2023-03-12T11:58:03.584Z,100800.69
2023-03-12T12:00:17.263Z,100795.47
2023-03-12T12:02:44.575Z,100788.50
2023-03-12T12:05:19.685Z,100786.75
2023-03-12T12:07:55.921Z,100776.31
2023-03-12T12:10:03.099Z,100786.72
2023-03-12T12:12:23.377Z,100774.59
2023-03-12T12:14:49.297Z,100763.31
2023-03-12T12:17:05.579Z,100772.00
2023-03-12T12:19:29.372Z,100757.22
2023-03-12T12:21:46.057Z,100757.22
2023-03-12T12:24:15.765Z,100758.09
2023-03-12T12:26:32.333Z,100747.69
2023-03-12T12:28:39.944Z,100745.09
2023-03-12T12:30:55.718Z,100742.44
2023-03-12T12:32:57.212Z,100738.03
2023-03-12T12:35:05.450Z,100734.56
2023-03-12T12:37:25.311Z,100735.47
2023-03-12T12:39:35.091Z,100736.38
2023-03-12T12:41:41.463Z,100738.09
2023-03-12T12:44:01.109Z,100743.22
2023-03-12T12:46:07.821Z,100737.13
2023-03-12T12:48:20.361Z,100723.25
2023-03-12T12:50:26.612Z,100726.75
2023-03-12T12:52:28.823Z,100729.34
2023-03-12T12:54:55.069Z,100725.00
2023-03-12T12:56:59.318Z,100716.31
2023-03-12T12:59:09.682Z,100722.41
2023-03-12T13:01:11.866Z,100718.06
2023-03-12T13:03:17.583Z,100712.88
2023-03-12T13:05:25.389Z,100717.25
2023-03-12T13:07:28.057Z,100706.84
2023-03-12T13:09:47.920Z,100701.63
2023-03-12T13:11:51.592Z,100695.56
2023-03-12T13:14:02.179Z,100689.47
2023-03-12T13:16:40.181Z,100681.69
2023-03-12T13:18:55.376Z,100690.38
2023-03-12T13:21:24.714Z,100682.56
2023-03-12T13:23:45.123Z,100685.16
2023-03-12T13:26:23.940Z,100689.53
2023-03-12T13:28:34.843Z,100679.97
2023-03-12T13:30:40.313Z,100673.00
2023-03-12T13:32:47.633Z,100666.06
2023-03-12T13:34:49.270Z,100662.59
2023-03-12T13:36:52.291Z,100666.94
2023-03-12T13:38:59.822Z,100666.94
2023-03-12T13:41:02.105Z,100660.88
2023-03-12T13:43:09.641Z,100666.09
2023-03-12T13:45:22.836Z,100653.06
2023-03-12T13:47:31.116Z,100649.59
2023-03-12T13:49:53.448Z,100641.78
2023-03-12T13:51:59.963Z,100631.34
2023-03-12T13:54:03.546Z,100634.84
2023-03-12T13:56:10.612Z,100642.66
2023-03-12T13:58:23.428Z,100647.03
2023-03-12T14:00:38.097Z,100645.31
2023-03-12T14:02:48.262Z,100640.09
2023-03-12T14:04:49.939Z,100653.13
2023-03-12T14:07:29.079Z,100646.16
2023-03-12T14:09:45.577Z,100639.22
2023-03-12T14:12:08.889Z,100645.31
2023-03-12T14:14:25.632Z,100649.66
2023-03-12T14:16:45.895Z,100647.03
2023-03-12T14:18:49.171Z,100641.81
2023-03-12T14:21:00.822Z,100650.50
2023-03-12T14:23:05.987Z,100646.16
2023-03-12T14:25:21.609Z,100645.31
2023-03-12T14:27:29.904Z,100644.44
2023-03-12T14:30:10.412Z,100634.88
2023-03-12T14:32:19.998Z,100639.22
2023-03-12T14:34:24.346Z,100630.53
2023-03-12T14:36:34.961Z,100630.53
2023-03-12T14:38:42.907Z,100630.53
2023-03-12T14:41:03.053Z,100621.81
2023-03-12T14:43:23.692Z,100615.75
2023-03-12T14:45:25.869Z,100614.88
2023-03-12T14:47:28.293Z,100617.50
2023-03-12T14:49:31.470Z,100620.97
2023-03-12T14:51:36.169Z,100620.09
2023-03-12T14:53:39.763Z,100622.69
2023-03-12T14:55:41.244Z,100620.97
2023-03-12T14:57:42.715Z,100617.47
2023-03-12T14:59:52.338Z,100605.28
2023-03-12T15:01:59.981Z,100590.50
2023-03-12T15:04:03.859Z,100593.09
2023-03-12T15:06:05.698Z,100599.19
2023-03-12T15:08:08.892Z,100602.66
2023-03-12T15:10:25.183Z,100597.41
2023-03-12T15:12:38.192Z,100600.88
2023-03-12T15:14:42.383Z,100606.97
2023-03-12T15:16:44.887Z,100607.00
2023-03-12T15:18:48.784Z,100604.38
2023-03-12T15:20:51.679Z,100610.44
2023-03-12T15:22:53.652Z,100595.66
2023-03-12T15:24:55.197Z,100597.38
2023-03-12T15:26:56.666Z,100598.22
2023-03-12T15:29:01.279Z,100606.91
2023-03-12T15:31:15.570Z,100607.75
2023-03-12T15:33:17.719Z,100598.19
2023-03-12T15:35:25.008Z,100596.44
2023-03-12T15:37:38.654Z,100594.69
2023-03-12T15:39:40.349Z,100602.50
2023-03-12T15:41:48.773Z,100602.50
2023-03-12T15:43:56.526Z,100608.56
2023-03-12T15:46:01.212Z,100606.84
2023-03-12T15:48:05.751Z,100607.69
2023-03-12T15:50:19.599Z,100599.00
2023-03-12T15:52:24.645Z,100599.84
2023-03-12T15:54:28.352Z,100595.47
2023-03-12T15:56:32.809Z,100601.53
2023-03-12T15:58:40.058Z,100601.53
2023-03-12T16:00:44.058Z,100602.38
2023-03-12T16:02:57.574Z,100588.41
2023-03-12T16:04:59.110Z,100589.25
2023-03-12T16:07:02.575Z,100587.47
2023-03-12T16:09:04.845Z,100588.31
2023-03-12T16:11:15.291Z,100592.66
2023-03-12T16:13:20.162Z,100593.53
2023-03-12T16:15:37.086Z,100594.38
2023-03-12T16:17:38.590Z,100595.22
2023-03-12T16:19:40.151Z,100598.69
2023-03-12T16:21:42.786Z,100595.19
2023-03-12T16:23:44.265Z,100598.63
2023-03-12T16:25:53.058Z,100596.00
2023-03-12T16:27:56.497Z,100595.94
2023-03-12T16:29:58.293Z,100607.22
2023-03-12T16:32:00.267Z,100601.97
2023-03-12T16:34:02.054Z,100601.94
2023-03-12T16:36:04.000Z,100601.03
2023-03-12T16:38:06.974Z,100597.56
2023-03-12T16:40:10.124Z,100594.03
2023-03-12T16:42:25.564Z,100600.09
2023-03-12T16:44:29.722Z,100600.06
2023-03-12T16:46:32.600Z,100609.59
2023-03-12T16:48:34.263Z,100606.94
2023-03-12T16:50:35.779Z,100612.97
2023-03-12T16:52:37.410Z,100598.97
2023-03-12T16:54:38.881Z,100594.56
2023-03-12T16:56:46.054Z,100596.28
2023-03-12T16:58:49.641Z,100602.34
2023-03-12T17:00:53.157Z,100606.69
2023-03-12T17:02:57.850Z,100602.31
2023-03-12T17:04:59.768Z,100604.94
2023-03-12T17:07:01.316Z,100601.44
2023-03-12T17:09:03.094Z,100602.28
2023-03-12T17:11:14.488Z,100598.78
2023-03-12T17:13:21.557Z,100599.66
2023-03-12T17:15:25.878Z,100599.59
2023-03-12T17:17:27.356Z,100602.22
2023-03-12T17:19:28.898Z,100609.19
2023-03-12T17:21:30.347Z,100614.41
2023-03-12T17:23:31.790Z,100610.91
2023-03-12T17:25:35.693Z,100606.53
2023-03-12T17:27:37.166Z,100608.25
2023-03-12T17:29:38.627Z,100601.25
2023-03-12T17:31:40.160Z,100610.81
2023-03-12T17:33:44.142Z,100609.03
2023-03-12T17:35:46.032Z,100609.03
2023-03-12T17:37:51.011Z,100622.13
2023-03-12T17:39:52.499Z,100620.34
2023-03-12T17:41:53.988Z,100615.97
2023-03-12T17:43:58.472Z,100620.28
2023-03-12T17:46:08.358Z,100615.91
2023-03-12T17:48:10.629Z,100620.28
2023-03-12T17:50:13.256Z,100625.47
2023-03-12T17:52:14.805Z,100630.66
2023-03-12T17:54:16.257Z,100628.06
2023-03-12T17:56:18.225Z,100621.94
2023-03-12T17:58:19.735Z,100622.84
2023-03-12T18:00:22.994Z,100621.03
2023-03-12T18:02:24.702Z,100632.38
2023-03-12T18:04:26.234Z,100627.97
2023-03-12T18:06:27.787Z,100620.03
2023-03-12T18:08:29.574Z,100613.03
2023-03-12T18:10:32.139Z,100601.66
2023-03-12T18:12:34.621Z,100606.88
2023-03-12T18:14:36.158Z,100623.47
2023-03-12T18:16:37.900Z,100613.88
2023-03-12T18:18:39.391Z,100621.75
2023-03-12T18:20:40.885Z,100632.16
2023-03-12T18:22:43.276Z,100641.72
2023-03-12T18:24:44.799Z,100634.69
2023-03-12T18:26:49.439Z,100635.50
2023-03-12T18:28:50.901Z,100633.75
2023-03-12T18:30:53.618Z,100632.84
2023-03-12T18:32:55.275Z,100627.59
2023-03-12T18:34:57.633Z,100631.97
2023-03-12T18:36:59.235Z,100638.06
2023-03-12T18:39:04.493Z,100638.94
2023-03-12T18:41:10.665Z,100635.38
2023-03-12T18:43:13.455Z,100626.59
2023-03-12T18:45:15.394Z,100623.03
2023-03-12T18:47:19.865Z,100618.63
2023-03-12T18:49:21.495Z,100621.22
2023-03-12T18:51:23.018Z,100622.09
2023-03-12T18:53:24.582Z,100624.72
2023-03-12T18:55:26.139Z,100626.47
2023-03-12T18:57:27.707Z,100635.13
2023-03-12T18:59:31.854Z,100624.59
2023-03-12T19:01:33.949Z,100632.47
2023-03-12T19:03:36.223Z,100633.34
2023-03-12T19:05:38.112Z,100639.47
2023-03-12T19:07:40.301Z,100624.69
2023-03-12T19:09:41.774Z,100627.31
2023-03-12T19:11:43.235Z,100615.03
2023-03-12T19:13:45.304Z,100613.19
2023-03-12T19:15:46.803Z,100616.66
2023-03-12T19:17:48.332Z,100607.94
2023-03-12T19:19:50.130Z,100614.06
2023-03-12T19:21:51.652Z,100609.72
2023-03-12T19:23:53.520Z,100600.09
2023-03-12T19:25:55.123Z,100602.69
2023-03-12T19:27:56.590Z,100603.53
2023-03-12T19:29:58.039Z,100599.19
2023-03-12T19:31:59.658Z,100600.91
2023-03-12T19:34:01.185Z,100602.72
2023-03-12T19:36:02.877Z,100607.06
2023-03-12T19:38:04.374Z,100611.47
2023-03-12T19:40:07.021Z,100604.53
2023-03-12T19:42:08.777Z,100602.81
2023-03-12T19:44:10.355Z,100604.63
2023-03-12T19:46:11.849Z,100595.03
2023-03-12T19:48:14.753Z,100598.53
2023-03-12T19:50:19.954Z,100605.56
2023-03-12T19:52:21.576Z,100608.22
2023-03-12T19:54:23.026Z,100608.25
2023-03-12T19:56:24.618Z,100616.16
2023-03-12T19:58:26.127Z,100613.53
2023-03-12T20:00:27.629Z,100618.75
2023-03-12T20:02:29.527Z,100615.22
2023-03-12T20:04:31.092Z,100613.41
2023-03-12T20:06:32.538Z,100622.09
2023-03-12T20:08:33.980Z,100621.22
2023-03-12T20:10:35.662Z,100618.56
2023-03-12T20:12:38.354Z,100616.84
2023-03-12T20:14:42.411Z,100611.63
2023-03-12T20:16:44.329Z,100606.41
2023-03-12T20:18:45.906Z,100609.94
2023-03-12T20:20:47.532Z,100604.69
2023-03-12T20:22:48.980Z,100600.34
2023-03-12T20:24:50.436Z,100600.41
2023-03-12T20:26:51.924Z,100601.31
2023-03-12T20:28:53.410Z,100597.78
2023-03-12T20:30:55.237Z,100598.59
2023-03-12T20:32:56.739Z,100599.47
2023-03-12T20:34:58.297Z,100601.19
2023-03-12T20:36:59.766Z,100598.63
2023-03-12T20:39:01.286Z,100597.72
2023-03-12T20:41:03.609Z,100598.59
2023-03-12T20:43:05.758Z,100597.72
2023-03-12T20:45:07.848Z,100595.09
2023-03-12T20:47:09.360Z,100586.41
2023-03-12T20:49:10.842Z,100589.06
2023-03-12T20:51:12.412Z,100582.03
2023-03-12T20:53:13.958Z,100574.19
2023-03-12T20:55:15.572Z,100571.59
2023-03-12T20:57:17.086Z,100568.09
2023-03-12T20:59:18.718Z,100558.47
2023-03-12T21:01:20.274Z,100552.31
2023-03-12T21:03:22.689Z,100553.19
2023-03-12T21:05:25.113Z,100558.44
2023-03-12T21:07:26.646Z,100566.31
2023-03-12T21:09:28.132Z,100563.72
2023-03-12T21:11:31.240Z,100555.84
2023-03-12T21:13:32.741Z,100561.94
2023-03-12T21:15:34.216Z,100563.69
2023-03-12T21:17:38.045Z,100559.25
2023-03-12T21:19:43.288Z,100554.78
2023-03-12T21:21:45.052Z,100559.13
2023-03-12T21:23:46.634Z,100555.66
2023-03-12T21:25:48.120Z,100550.41
2023-03-12T21:27:51.793Z,100560.91
2023-03-12T21:29:54.106Z,100552.13
2023-03-12T21:31:55.587Z,100553.00
2023-03-12T21:33:57.930Z,100540.78
2023-03-12T21:35:59.641Z,100548.66
2023-03-12T21:38:02.557Z,100547.78
2023-03-12T21:40:04.982Z,100547.75
2023-03-12T21:42:06.472Z,100538.97
2023-03-12T21:44:07.961Z,100531.09
2023-03-12T21:46:12.097Z,100536.31
2023-03-12T21:48:13.638Z,100528.47
2023-03-12T21:50:15.130Z,100522.31
2023-03-12T21:52:16.639Z,100519.63
2023-03-12T21:54:18.129Z,100523.06
2023-03-12T21:56:19.724Z,100520.41
2023-03-12T21:58:21.192Z,100521.28
2023-03-12T22:00:22.829Z,100518.63
2023-03-12T22:02:25.870Z,100515.13
2023-03-12T22:04:30.077Z,100515.97
2023-03-12T22:06:32.072Z,100508.09
2023-03-12T22:08:34.456Z,100506.34
2023-03-12T22:10:35.974Z,100512.41
2023-03-12T22:12:39.457Z,100501.00
2023-03-12T22:14:40.912Z,100495.75
2023-03-12T22:16:42.415Z,100492.25
2023-03-12T22:18:45.738Z,100491.38
2023-03-12T22:20:58.625Z,100494.00
2023-03-12T22:23:00.930Z,100494.03
2023-03-12T22:25:02.415Z,100491.44
2023-03-12T22:27:06.827Z,100486.22
2023-03-12T22:29:09.076Z,100489.69
2023-03-12T22:31:10.637Z,100491.41
2023-03-12T22:33:12.685Z,100480.91
2023-03-12T22:35:14.181Z,100489.66
2023-03-12T22:37:15.830Z,100480.03
2023-03-12T22:39:17.607Z,100477.41
2023-03-12T22:41:27.482Z,100479.16
2023-03-12T22:43:28.972Z,100471.28
2023-03-12T22:45:30.472Z,100477.41
2023-03-12T22:47:31.975Z,100474.75
2023-03-12T22:49:33.869Z,100473.88
2023-03-12T22:51:35.424Z,100473.88
2023-03-12T22:53:37.167Z,100470.38
2023-03-12T22:55:38.664Z,100476.44
2023-03-12T22:57:40.233Z,100470.25
2023-03-12T22:59:41.671Z,100475.53
2023-03-12T23:01:43.195Z,100466.78
2023-03-12T23:03:45.811Z,100463.22
2023-03-12T23:05:47.236Z,100453.59
2023-03-12T23:07:48.965Z,100453.59
2023-03-12T23:09:50.421Z,100437.03
2023-03-12T23:11:51.934Z,100434.34
2023-03-12T23:13:55.236Z,100437.81
2023-03-12T23:16:08.845Z,100425.56
2023-03-12T23:18:10.441Z,100421.25
2023-03-12T23:20:13.425Z,100425.63
2023-03-12T23:22:15.244Z,100418.63
2023-03-12T23:24:16.773Z,100419.47
2023-03-12T23:26:18.182Z,100408.88
2023-03-12T23:28:19.674Z,100409.66
2023-03-12T23:30:21.236Z,100409.56
2023-03-12T23:32:23.138Z,100406.84
2023-03-12T23:34:25.181Z,100400.69
2023-03-12T23:36:26.741Z,100393.69
2023-03-12T23:38:29.405Z,100397.19
2023-03-12T23:40:30.869Z,100391.91
2023-03-12T23:42:33.143Z,100388.34
2023-03-12T23:44:34.611Z,100390.09
2023-03-12T23:46:36.077Z,100381.41
2023-03-12T23:48:38.580Z,100382.31